sensor_id;sensor_type;location;lat;lon;timestamp;temperature;humidity
38480;DHT22;62333;51.980;5.934;2023-02-01T00:01:53;7.00;90.50
38480;DHT22;62333;51.980;5.934;2023-02-01T00:04:19;7.10;90.50
38480;DHT22;62333;51.980;5.934;2023-02-01T00:06:45;7.00;90.40
38480;DHT22;62333;51.980;5.934;2023-02-01T00:09:11;7.10;90.50
38480;DHT22;62333;51.980;5.934;2023-02-01T00:11:37;7.10;90.40
38480;DHT22;62333;51.980;5.934;2023-02-01T00:14:02;7.10;90.30
38480;DHT22;62333;51.980;5.934;2023-02-01T00:16:30;7.10;90.20
38480;DHT22;62333;51.980;5.934;2023-02-01T00:19:01;7.10;90.20
38480;DHT22;62333;51.980;5.934;2023-02-01T00:21:27;7.10;90.10
38480;DHT22;62333;51.980;5.934;2023-02-01T00:23:53;7.10;90.00
38480;DHT22;62333;51.980;5.934;2023-02-01T00:26:25;7.10;89.90
38480;DHT22;62333;51.980;5.934;2023-02-01T00:28:53;7.10;89.70
38480;DHT22;62333;51.980;5.934;2023-02-01T00:31:19;7.10;89.50
38480;DHT22;62333;51.980;5.934;2023-02-01T00:33:47;7.00;89.30
38480;DHT22;62333;51.980;5.934;2023-02-01T00:36:14;7.10;89.30
38480;DHT22;62333;51.980;5.934;2023-02-01T00:38:39;7.10;89.20
38480;DHT22;62333;51.980;5.934;2023-02-01T00:41:10;7.10;89.10
38480;DHT22;62333;51.980;5.934;2023-02-01T00:43:36;7.10;88.90
38480;DHT22;62333;51.980;5.934;2023-02-01T00:46:02;7.10;88.90
38480;DHT22;62333;51.980;5.934;2023-02-01T00:48:28;7.10;88.90
38480;DHT22;62333;51.980;5.934;2023-02-01T00:50:54;7.10;88.80
38480;DHT22;62333;51.980;5.934;2023-02-01T00:53:19;7.10;88.80
38480;DHT22;62333;51.980;5.934;2023-02-01T00:55:48;7.10;88.70
38480;DHT22;62333;51.980;5.934;2023-02-01T00:58:14;7.10;88.70
38480;DHT22;62333;51.980;5.934;2023-02-01T01:00:40;7.10;88.70
38480;DHT22;62333;51.980;5.934;2023-02-01T01:03:06;7.10;88.70
38480;DHT22;62333;51.980;5.934;2023-02-01T01:05:47;7.10;88.70
38480;DHT22;62333;51.980;5.934;2023-02-01T01:08:16;7.10;88.70
38480;DHT22;62333;51.980;5.934;2023-02-01T01:10:43;7.10;88.80
38480;DHT22;62333;51.980;5.934;2023-02-01T01:13:09;7.10;88.80
38480;DHT22;62333;51.980;5.934;2023-02-01T01:15:39;7.10;88.80
38480;DHT22;62333;51.980;5.934;2023-02-01T01:18:05;7.10;88.80
38480;DHT22;62333;51.980;5.934;2023-02-01T01:20:33;7.10;88.80
38480;DHT22;62333;51.980;5.934;2023-02-01T01:22:59;7.10;88.90
38480;DHT22;62333;51.980;5.934;2023-02-01T01:25:25;7.10;88.90
38480;DHT22;62333;51.980;5.934;2023-02-01T01:27:50;7.10;89.00
38480;DHT22;62333;51.980;5.934;2023-02-01T01:30:16;7.10;89.10
38480;DHT22;62333;51.980;5.934;2023-02-01T01:32:43;7.10;89.20
38480;DHT22;62333;51.980;5.934;2023-02-01T01:35:09;7.10;89.30
38480;DHT22;62333;51.980;5.934;2023-02-01T01:37:35;7.10;89.40
38480;DHT22;62333;51.980;5.934;2023-02-01T01:40:05;7.00;89.50
38480;DHT22;62333;51.980;5.934;2023-02-01T01:42:37;7.00;89.70
38480;DHT22;62333;51.980;5.934;2023-02-01T01:50:33;7.00;90.00
38480;DHT22;62333;51.980;5.934;2023-02-01T01:53:01;7.00;90.00
38480;DHT22;62333;51.980;5.934;2023-02-01T01:55:32;7.00;90.10
38480;DHT22;62333;51.980;5.934;2023-02-01T01:58:02;7.00;90.10
38480;DHT22;62333;51.980;5.934;2023-02-01T02:00:29;7.00;90.10
38480;DHT22;62333;51.980;5.934;2023-02-01T02:02:58;7.00;90.20
38480;DHT22;62333;51.980;5.934;2023-02-01T02:05:24;7.00;90.20
38480;DHT22;62333;51.980;5.934;2023-02-01T02:07:52;7.00;90.30
38480;DHT22;62333;51.980;5.934;2023-02-01T02:10:18;7.00;90.30
38480;DHT22;62333;51.980;5.934;2023-02-01T02:12:47;7.00;90.30
38480;DHT22;62333;51.980;5.934;2023-02-01T02:15:14;7.00;90.30
38480;DHT22;62333;51.980;5.934;2023-02-01T02:28:51;7.00;90.30
38480;DHT22;62333;51.980;5.934;2023-02-01T02:32:15;7.00;90.30
38480;DHT22;62333;51.980;5.934;2023-02-01T02:37:37;7.00;90.30
38480;DHT22;62333;51.980;5.934;2023-02-01T02:43:19;7.00;90.30
38480;DHT22;62333;51.980;5.934;2023-02-01T02:49:15;6.90;90.30
38480;DHT22;62333;51.980;5.934;2023-02-01T02:51:53;7.00;90.30
38480;DHT22;62333;51.980;5.934;2023-02-01T02:54:42;6.90;90.30
38480;DHT22;62333;51.980;5.934;2023-02-01T02:57:28;6.90;90.30
38480;DHT22;62333;51.980;5.934;2023-02-01T03:00:19;6.90;90.30
38480;DHT22;62333;51.980;5.934;2023-02-01T03:03:04;6.90;90.40
38480;DHT22;62333;51.980;5.934;2023-02-01T03:05:50;6.90;90.40
38480;DHT22;62333;51.980;5.934;2023-02-01T03:08:23;6.90;90.40
38480;DHT22;62333;51.980;5.934;2023-02-01T03:13:52;6.90;90.40
38480;DHT22;62333;51.980;5.934;2023-02-01T03:16:23;6.90;90.40
38480;DHT22;62333;51.980;5.934;2023-02-01T03:19:02;6.90;90.50
38480;DHT22;62333;51.980;5.934;2023-02-01T03:21:43;6.90;90.50
38480;DHT22;62333;51.980;5.934;2023-02-01T03:24:34;6.90;90.50
38480;DHT22;62333;51.980;5.934;2023-02-01T03:32:14;6.90;90.50
38480;DHT22;62333;51.980;5.934;2023-02-01T03:34:40;6.90;90.50
38480;DHT22;62333;51.980;5.934;2023-02-01T03:37:25;6.90;90.60
38480;DHT22;62333;51.980;5.934;2023-02-01T03:40:00;6.90;90.60
38480;DHT22;62333;51.980;5.934;2023-02-01T03:42:38;6.90;90.70
38480;DHT22;62333;51.980;5.934;2023-02-01T03:45:23;6.90;90.70
38480;DHT22;62333;51.980;5.934;2023-02-01T03:47:53;6.90;90.70
38480;DHT22;62333;51.980;5.934;2023-02-01T03:50:21;6.90;90.70
38480;DHT22;62333;51.980;5.934;2023-02-01T03:52:54;6.90;90.80
38480;DHT22;62333;51.980;5.934;2023-02-01T03:55:23;7.00;90.80
38480;DHT22;62333;51.980;5.934;2023-02-01T03:58:08;7.00;90.80
38480;DHT22;62333;51.980;5.934;2023-02-01T04:00:35;7.00;90.80
38480;DHT22;62333;51.980;5.934;2023-02-01T04:03:02;7.00;90.80
38480;DHT22;62333;51.980;5.934;2023-02-01T04:05:29;7.10;90.80
38480;DHT22;62333;51.980;5.934;2023-02-01T04:07:56;7.00;90.80
38480;DHT22;62333;51.980;5.934;2023-02-01T04:10:21;7.00;90.80
38480;DHT22;62333;51.980;5.934;2023-02-01T04:12:47;7.00;90.80
38480;DHT22;62333;51.980;5.934;2023-02-01T04:15:13;7.00;90.80
38480;DHT22;62333;51.980;5.934;2023-02-01T04:17:39;7.00;90.90
38480;DHT22;62333;51.980;5.934;2023-02-01T04:20:05;7.00;90.90
38480;DHT22;62333;51.980;5.934;2023-02-01T04:22:31;7.00;90.90
38480;DHT22;62333;51.980;5.934;2023-02-01T04:24:56;7.00;91.00
38480;DHT22;62333;51.980;5.934;2023-02-01T04:27:22;7.00;91.00
38480;DHT22;62333;51.980;5.934;2023-02-01T04:29:48;7.00;91.00
38480;DHT22;62333;51.980;5.934;2023-02-01T04:32:17;7.00;91.00
38480;DHT22;62333;51.980;5.934;2023-02-01T04:34:43;7.00;91.10
38480;DHT22;62333;51.980;5.934;2023-02-01T04:37:09;7.00;91.10
38480;DHT22;62333;51.980;5.934;2023-02-01T04:39:34;7.00;91.10
38480;DHT22;62333;51.980;5.934;2023-02-01T04:42:00;7.10;91.10
38480;DHT22;62333;51.980;5.934;2023-02-01T04:44:26;7.10;91.10
38480;DHT22;62333;51.980;5.934;2023-02-01T04:46:51;7.10;91.20
38480;DHT22;62333;51.980;5.934;2023-02-01T04:49:17;7.10;91.20
38480;DHT22;62333;51.980;5.934;2023-02-01T04:51:43;7.10;91.20
38480;DHT22;62333;51.980;5.934;2023-02-01T04:54:09;7.20;91.20
38480;DHT22;62333;51.980;5.934;2023-02-01T04:56:37;7.20;91.20
38480;DHT22;62333;51.980;5.934;2023-02-01T04:59:04;7.20;91.20
38480;DHT22;62333;51.980;5.934;2023-02-01T05:01:29;7.20;91.10
38480;DHT22;62333;51.980;5.934;2023-02-01T05:03:55;7.30;91.10
38480;DHT22;62333;51.980;5.934;2023-02-01T05:06:21;7.30;91.10
38480;DHT22;62333;51.980;5.934;2023-02-01T05:08:47;7.40;91.10
38480;DHT22;62333;51.980;5.934;2023-02-01T05:11:12;7.40;91.00
38480;DHT22;62333;51.980;5.934;2023-02-01T05:13:57;7.40;91.00
38480;DHT22;62333;51.980;5.934;2023-02-01T05:16:23;7.40;90.90
38480;DHT22;62333;51.980;5.934;2023-02-01T05:18:49;7.50;90.90
38480;DHT22;62333;51.980;5.934;2023-02-01T05:21:14;7.50;90.90
38480;DHT22;62333;51.980;5.934;2023-02-01T05:23:40;7.50;90.80
38480;DHT22;62333;51.980;5.934;2023-02-01T05:26:24;7.60;90.80
38480;DHT22;62333;51.980;5.934;2023-02-01T05:37:36;7.70;90.60
38480;DHT22;62333;51.980;5.934;2023-02-01T05:40:02;7.70;90.60
38480;DHT22;62333;51.980;5.934;2023-02-01T05:42:28;7.70;90.60
38480;DHT22;62333;51.980;5.934;2023-02-01T05:44:53;7.70;90.60
38480;DHT22;62333;51.980;5.934;2023-02-01T05:47:19;7.70;90.50
38480;DHT22;62333;51.980;5.934;2023-02-01T05:49:46;7.70;90.50
38480;DHT22;62333;51.980;5.934;2023-02-01T05:52:11;7.80;90.60
38480;DHT22;62333;51.980;5.934;2023-02-01T05:54:37;7.80;90.50
38480;DHT22;62333;51.980;5.934;2023-02-01T05:57:02;7.80;90.50
38480;DHT22;62333;51.980;5.934;2023-02-01T05:59:28;7.80;90.50
38480;DHT22;62333;51.980;5.934;2023-02-01T06:01:54;7.80;90.40
38480;DHT22;62333;51.980;5.934;2023-02-01T06:04:20;7.80;90.40
38480;DHT22;62333;51.980;5.934;2023-02-01T06:06:46;7.90;90.40
38480;DHT22;62333;51.980;5.934;2023-02-01T06:09:11;7.90;90.30
38480;DHT22;62333;51.980;5.934;2023-02-01T06:11:37;7.90;90.30
38480;DHT22;62333;51.980;5.934;2023-02-01T06:14:02;7.90;90.30
38480;DHT22;62333;51.980;5.934;2023-02-01T06:16:29;7.90;90.20
38480;DHT22;62333;51.980;5.934;2023-02-01T06:18:55;7.90;90.10
38480;DHT22;62333;51.980;5.934;2023-02-01T06:21:21;7.90;90.10
38480;DHT22;62333;51.980;5.934;2023-02-01T06:23:51;7.90;90.00
38480;DHT22;62333;51.980;5.934;2023-02-01T06:26:17;7.90;89.90
38480;DHT22;62333;51.980;5.934;2023-02-01T06:28:43;7.90;89.70
38480;DHT22;62333;51.980;5.934;2023-02-01T06:31:09;8.00;89.90
38480;DHT22;62333;51.980;5.934;2023-02-01T06:33:36;8.00;89.80
38480;DHT22;62333;51.980;5.934;2023-02-01T06:36:04;8.00;89.70
38480;DHT22;62333;51.980;5.934;2023-02-01T06:38:30;8.00;89.60
38480;DHT22;62333;51.980;5.934;2023-02-01T06:40:57;8.00;89.60
38480;DHT22;62333;51.980;5.934;2023-02-01T06:43:24;8.00;89.70
38480;DHT22;62333;51.980;5.934;2023-02-01T06:45:50;8.00;89.60
38480;DHT22;62333;51.980;5.934;2023-02-01T06:48:16;8.00;89.50
38480;DHT22;62333;51.980;5.934;2023-02-01T06:50:42;8.00;89.30
38480;DHT22;62333;51.980;5.934;2023-02-01T06:53:07;8.10;89.40
38480;DHT22;62333;51.980;5.934;2023-02-01T06:55:33;8.10;89.30
38480;DHT22;62333;51.980;5.934;2023-02-01T06:57:59;8.10;89.30
38480;DHT22;62333;51.980;5.934;2023-02-01T07:00:26;8.10;89.00
38480;DHT22;62333;51.980;5.934;2023-02-01T07:02:52;8.10;89.10
38480;DHT22;62333;51.980;5.934;2023-02-01T07:05:17;8.10;89.10
38480;DHT22;62333;51.980;5.934;2023-02-01T07:07:43;8.10;89.20
38480;DHT22;62333;51.980;5.934;2023-02-01T07:10:10;8.10;89.10
38480;DHT22;62333;51.980;5.934;2023-02-01T07:12:36;8.20;89.10
38480;DHT22;62333;51.980;5.934;2023-02-01T07:15:02;8.10;89.10
38480;DHT22;62333;51.980;5.934;2023-02-01T07:17:28;8.10;89.00
38480;DHT22;62333;51.980;5.934;2023-02-01T07:19:55;8.10;89.10
38480;DHT22;62333;51.980;5.934;2023-02-01T07:22:21;8.10;89.10
38480;DHT22;62333;51.980;5.934;2023-02-01T07:24:46;8.10;89.10
38480;DHT22;62333;51.980;5.934;2023-02-01T07:27:12;8.10;89.10
38480;DHT22;62333;51.980;5.934;2023-02-01T07:29:38;8.10;89.10
38480;DHT22;62333;51.980;5.934;2023-02-01T07:32:04;8.10;89.10
38480;DHT22;62333;51.980;5.934;2023-02-01T07:34:29;8.10;89.30
38480;DHT22;62333;51.980;5.934;2023-02-01T07:36:59;8.00;89.30
38480;DHT22;62333;51.980;5.934;2023-02-01T07:39:25;8.00;89.30
38480;DHT22;62333;51.980;5.934;2023-02-01T07:41:53;8.00;89.40
38480;DHT22;62333;51.980;5.934;2023-02-01T07:44:19;8.00;89.40
38480;DHT22;62333;51.980;5.934;2023-02-01T07:46:48;8.00;89.50
38480;DHT22;62333;51.980;5.934;2023-02-01T07:49:14;8.00;89.50
38480;DHT22;62333;51.980;5.934;2023-02-01T07:51:40;8.00;89.60
38480;DHT22;62333;51.980;5.934;2023-02-01T07:54:05;8.00;89.60
38480;DHT22;62333;51.980;5.934;2023-02-01T07:56:31;8.00;89.60
38480;DHT22;62333;51.980;5.934;2023-02-01T07:58:57;8.00;89.70
38480;DHT22;62333;51.980;5.934;2023-02-01T08:01:26;8.00;89.70
38480;DHT22;62333;51.980;5.934;2023-02-01T08:03:57;8.00;89.80
38480;DHT22;62333;51.980;5.934;2023-02-01T08:06:25;8.00;89.80
38480;DHT22;62333;51.980;5.934;2023-02-01T08:08:52;8.00;89.80
38480;DHT22;62333;51.980;5.934;2023-02-01T08:11:18;8.00;89.70
38480;DHT22;62333;51.980;5.934;2023-02-01T08:13:44;8.00;89.70
38480;DHT22;62333;51.980;5.934;2023-02-01T08:16:12;8.00;89.70
38480;DHT22;62333;51.980;5.934;2023-02-01T08:18:39;8.00;89.80
38480;DHT22;62333;51.980;5.934;2023-02-01T08:23:38;8.10;89.70
38480;DHT22;62333;51.980;5.934;2023-02-01T08:28:38;8.10;89.40
38480;DHT22;62333;51.980;5.934;2023-02-01T08:31:16;8.10;89.40
38480;DHT22;62333;51.980;5.934;2023-02-01T08:33:43;8.20;89.50
38480;DHT22;62333;51.980;5.934;2023-02-01T08:36:10;8.20;89.50
38480;DHT22;62333;51.980;5.934;2023-02-01T08:38:37;8.20;89.50
38480;DHT22;62333;51.980;5.934;2023-02-01T08:41:10;8.20;89.30
38480;DHT22;62333;51.980;5.934;2023-02-01T08:43:37;8.20;89.30
38480;DHT22;62333;51.980;5.934;2023-02-01T08:46:04;8.30;89.20
38480;DHT22;62333;51.980;5.934;2023-02-01T08:48:29;8.40;89.10
38480;DHT22;62333;51.980;5.934;2023-02-01T08:50:55;8.40;89.00
38480;DHT22;62333;51.980;5.934;2023-02-01T08:53:21;8.50;88.90
38480;DHT22;62333;51.980;5.934;2023-02-01T08:55:47;8.60;88.90
38480;DHT22;62333;51.980;5.934;2023-02-01T08:58:13;8.80;88.60
38480;DHT22;62333;51.980;5.934;2023-02-01T09:00:40;8.90;88.20
38480;DHT22;62333;51.980;5.934;2023-02-01T09:03:07;9.00;88.00
38480;DHT22;62333;51.980;5.934;2023-02-01T09:05:34;9.10;87.70
38480;DHT22;62333;51.980;5.934;2023-02-01T09:08:00;9.20;87.10
38480;DHT22;62333;51.980;5.934;2023-02-01T09:10:25;9.30;86.80
38480;DHT22;62333;51.980;5.934;2023-02-01T09:12:51;9.40;86.30
38480;DHT22;62333;51.980;5.934;2023-02-01T09:15:17;9.50;86.30
38480;DHT22;62333;51.980;5.934;2023-02-01T09:17:43;9.60;86.10
38480;DHT22;62333;51.980;5.934;2023-02-01T09:20:09;9.60;86.00
38480;DHT22;62333;51.980;5.934;2023-02-01T09:22:35;9.70;85.50
38480;DHT22;62333;51.980;5.934;2023-02-01T09:25:00;9.70;84.90
38480;DHT22;62333;51.980;5.934;2023-02-01T09:27:26;9.70;85.00
38480;DHT22;62333;51.980;5.934;2023-02-01T09:29:52;9.70;85.20
38480;DHT22;62333;51.980;5.934;2023-02-01T09:32:22;9.80;84.90
38480;DHT22;62333;51.980;5.934;2023-02-01T09:34:49;9.80;84.50
38480;DHT22;62333;51.980;5.934;2023-02-01T09:37:15;9.80;84.40
38480;DHT22;62333;51.980;5.934;2023-02-01T09:39:41;9.80;84.10
38480;DHT22;62333;51.980;5.934;2023-02-01T09:42:42;9.80;84.00
38480;DHT22;62333;51.980;5.934;2023-02-01T09:45:22;9.80;84.00
38480;DHT22;62333;51.980;5.934;2023-02-01T09:47:55;9.90;84.10
38480;DHT22;62333;51.980;5.934;2023-02-01T09:50:48;9.90;84.00
38480;DHT22;62333;51.980;5.934;2023-02-01T09:53:40;9.90;83.90
38480;DHT22;62333;51.980;5.934;2023-02-01T09:56:13;9.90;83.60
38480;DHT22;62333;51.980;5.934;2023-02-01T09:59:15;9.80;83.40
38480;DHT22;62333;51.980;5.934;2023-02-01T10:01:36;9.80;83.50
38480;DHT22;62333;51.980;5.934;2023-02-01T10:04:27;9.80;83.60
38480;DHT22;62333;51.980;5.934;2023-02-01T10:16:31;9.50;84.00
38480;DHT22;62333;51.980;5.934;2023-02-01T10:21:54;9.50;84.30
38480;DHT22;62333;51.980;5.934;2023-02-01T10:26:56;9.40;84.50
38480;DHT22;62333;51.980;5.934;2023-02-01T10:29:27;9.40;84.60
38480;DHT22;62333;51.980;5.934;2023-02-01T10:31:57;9.40;84.90
38480;DHT22;62333;51.980;5.934;2023-02-01T10:34:30;9.30;85.10
38480;DHT22;62333;51.980;5.934;2023-02-01T10:37:00;9.30;85.70
38480;DHT22;62333;51.980;5.934;2023-02-01T10:39:27;9.30;86.30
38480;DHT22;62333;51.980;5.934;2023-02-01T10:41:54;9.30;86.70
38480;DHT22;62333;51.980;5.934;2023-02-01T10:44:27;9.30;87.10
38480;DHT22;62333;51.980;5.934;2023-02-01T10:46:54;9.20;87.30
38480;DHT22;62333;51.980;5.934;2023-02-01T10:49:55;9.20;87.70
38480;DHT22;62333;51.980;5.934;2023-02-01T10:53:25;9.20;88.00
38480;DHT22;62333;51.980;5.934;2023-02-01T10:55:39;9.10;88.40
38480;DHT22;62333;51.980;5.934;2023-02-01T10:58:10;9.10;88.90
38480;DHT22;62333;51.980;5.934;2023-02-01T11:00:54;9.00;89.70
38480;DHT22;62333;51.980;5.934;2023-02-01T11:03:36;9.00;89.50
38480;DHT22;62333;51.980;5.934;2023-02-01T11:06:37;9.00;90.00
38480;DHT22;62333;51.980;5.934;2023-02-01T11:11:31;8.90;90.10
38480;DHT22;62333;51.980;5.934;2023-02-01T11:14:12;8.90;90.10
38480;DHT22;62333;51.980;5.934;2023-02-01T11:16:39;8.90;90.10
38480;DHT22;62333;51.980;5.934;2023-02-01T11:19:05;8.90;90.00
38480;DHT22;62333;51.980;5.934;2023-02-01T11:21:33;8.90;90.00
38480;DHT22;62333;51.980;5.934;2023-02-01T11:24:04;8.90;90.00
38480;DHT22;62333;51.980;5.934;2023-02-01T11:26:30;8.90;90.00
38480;DHT22;62333;51.980;5.934;2023-02-01T11:29:10;8.90;89.90
38480;DHT22;62333;51.980;5.934;2023-02-01T11:31:37;8.90;89.90
38480;DHT22;62333;51.980;5.934;2023-02-01T11:34:11;8.90;89.70
38480;DHT22;62333;51.980;5.934;2023-02-01T11:36:39;8.90;89.50
38480;DHT22;62333;51.980;5.934;2023-02-01T11:42:15;8.90;89.30
38480;DHT22;62333;51.980;5.934;2023-02-01T11:44:43;8.90;89.30
38480;DHT22;62333;51.980;5.934;2023-02-01T11:49:55;8.90;89.90
38480;DHT22;62333;51.980;5.934;2023-02-01T12:14:52;9.00;90.00
38480;DHT22;62333;51.980;5.934;2023-02-01T12:33:53;9.10;89.90
38480;DHT22;62333;51.980;5.934;2023-02-01T12:36:53;9.20;89.80
38480;DHT22;62333;51.980;5.934;2023-02-01T12:39:51;9.20;89.40
38480;DHT22;62333;51.980;5.934;2023-02-01T12:47:56;9.30;88.90
38480;DHT22;62333;51.980;5.934;2023-02-01T12:50:40;9.30;88.80
38480;DHT22;62333;51.980;5.934;2023-02-01T12:53:46;9.40;88.70
38480;DHT22;62333;51.980;5.934;2023-02-01T12:56:23;9.40;88.40
38480;DHT22;62333;51.980;5.934;2023-02-01T12:58:55;9.40;88.00
38480;DHT22;62333;51.980;5.934;2023-02-01T13:01:26;9.50;88.00
38480;DHT22;62333;51.980;5.934;2023-02-01T13:11:42;9.50;87.10
38480;DHT22;62333;51.980;5.934;2023-02-01T13:22:21;9.60;87.30
38480;DHT22;62333;51.980;5.934;2023-02-01T13:24:57;9.60;87.10
38480;DHT22;62333;51.980;5.934;2023-02-01T13:27:27;9.60;87.10
38480;DHT22;62333;51.980;5.934;2023-02-01T13:29:58;9.60;87.10
38480;DHT22;62333;51.980;5.934;2023-02-01T13:32:38;9.60;87.00
38480;DHT22;62333;51.980;5.934;2023-02-01T13:43:16;9.60;86.60
38480;DHT22;62333;51.980;5.934;2023-02-01T13:45:56;9.60;86.50
38480;DHT22;62333;51.980;5.934;2023-02-01T13:51:03;9.60;86.50
38480;DHT22;62333;51.980;5.934;2023-02-01T13:53:35;9.60;86.70
38480;DHT22;62333;51.980;5.934;2023-02-01T13:56:23;9.60;86.70
38480;DHT22;62333;51.980;5.934;2023-02-01T13:58:50;9.60;86.60
38480;DHT22;62333;51.980;5.934;2023-02-01T14:04:00;9.60;86.70
38480;DHT22;62333;51.980;5.934;2023-02-01T14:09:14;9.70;86.70
38480;DHT22;62333;51.980;5.934;2023-02-01T14:11:46;9.70;86.90
38480;DHT22;62333;51.980;5.934;2023-02-01T14:19:32;9.60;86.60
38480;DHT22;62333;51.980;5.934;2023-02-01T14:22:44;9.70;86.40
38480;DHT22;62333;51.980;5.934;2023-02-01T14:24:50;9.70;86.50
38480;DHT22;62333;51.980;5.934;2023-02-01T14:27:24;9.70;86.40
38480;DHT22;62333;51.980;5.934;2023-02-01T14:30:01;9.70;86.40
38480;DHT22;62333;51.980;5.934;2023-02-01T14:35:01;9.80;86.30
38480;DHT22;62333;51.980;5.934;2023-02-01T14:37:30;9.80;86.30
38480;DHT22;62333;51.980;5.934;2023-02-01T14:40:03;9.80;86.00
38480;DHT22;62333;51.980;5.934;2023-02-01T14:47:48;9.80;85.40
38480;DHT22;62333;51.980;5.934;2023-02-01T14:50:40;9.80;85.60
38480;DHT22;62333;51.980;5.934;2023-02-01T15:01:00;9.80;85.70
38480;DHT22;62333;51.980;5.934;2023-02-01T15:05:58;9.80;85.80
38480;DHT22;62333;51.980;5.934;2023-02-01T15:08:32;9.80;85.90
38480;DHT22;62333;51.980;5.934;2023-02-01T15:11:02;9.80;86.00
38480;DHT22;62333;51.980;5.934;2023-02-01T15:13:31;9.90;86.10
38480;DHT22;62333;51.980;5.934;2023-02-01T15:16:05;9.90;86.00
38480;DHT22;62333;51.980;5.934;2023-02-01T15:18:32;9.90;86.00
38480;DHT22;62333;51.980;5.934;2023-02-01T15:20:59;9.90;86.10
38480;DHT22;62333;51.980;5.934;2023-02-01T15:23:26;9.90;86.20
38480;DHT22;62333;51.980;5.934;2023-02-01T15:25:53;9.90;86.30
38480;DHT22;62333;51.980;5.934;2023-02-01T15:28:19;9.90;86.60
38480;DHT22;62333;51.980;5.934;2023-02-01T15:31:04;9.90;86.90
38480;DHT22;62333;51.980;5.934;2023-02-01T15:33:31;9.90;87.20
38480;DHT22;62333;51.980;5.934;2023-02-01T15:36:08;9.90;87.50
38480;DHT22;62333;51.980;5.934;2023-02-01T15:38:43;9.80;88.30
38480;DHT22;62333;51.980;5.934;2023-02-01T15:41:18;9.80;88.00
38480;DHT22;62333;51.980;5.934;2023-02-01T15:46:29;9.80;88.10
38480;DHT22;62333;51.980;5.934;2023-02-01T15:48:56;9.90;88.20
38480;DHT22;62333;51.980;5.934;2023-02-01T15:51:25;9.90;88.10
38480;DHT22;62333;51.980;5.934;2023-02-01T15:53:55;9.90;88.10
38480;DHT22;62333;51.980;5.934;2023-02-01T15:56:35;9.90;88.00
38480;DHT22;62333;51.980;5.934;2023-02-01T15:59:03;9.80;87.90
38480;DHT22;62333;51.980;5.934;2023-02-01T16:01:30;9.80;88.00
38480;DHT22;62333;51.980;5.934;2023-02-01T16:04:25;9.80;88.00
38480;DHT22;62333;51.980;5.934;2023-02-01T16:07:00;9.80;88.00
38480;DHT22;62333;51.980;5.934;2023-02-01T16:09:51;9.70;88.00
38480;DHT22;62333;51.980;5.934;2023-02-01T16:12:31;9.70;88.10
38480;DHT22;62333;51.980;5.934;2023-02-01T16:15:00;9.70;88.20
38480;DHT22;62333;51.980;5.934;2023-02-01T16:17:26;9.70;88.20
38480;DHT22;62333;51.980;5.934;2023-02-01T16:19:51;9.70;88.30
38480;DHT22;62333;51.980;5.934;2023-02-01T16:22:17;9.70;88.40
38480;DHT22;62333;51.980;5.934;2023-02-01T16:24:43;9.70;88.40
38480;DHT22;62333;51.980;5.934;2023-02-01T16:27:09;9.70;88.40
38480;DHT22;62333;51.980;5.934;2023-02-01T16:29:34;9.70;88.50
38480;DHT22;62333;51.980;5.934;2023-02-01T16:32:00;9.60;88.50
38480;DHT22;62333;51.980;5.934;2023-02-01T16:34:26;9.70;88.60
38480;DHT22;62333;51.980;5.934;2023-02-01T16:36:51;9.70;88.40
38480;DHT22;62333;51.980;5.934;2023-02-01T16:39:19;9.70;88.40
38480;DHT22;62333;51.980;5.934;2023-02-01T16:41:45;9.70;88.50
38480;DHT22;62333;51.980;5.934;2023-02-01T16:44:11;9.70;88.50
38480;DHT22;62333;51.980;5.934;2023-02-01T16:46:42;9.70;88.50
38480;DHT22;62333;51.980;5.934;2023-02-01T16:49:23;9.70;88.60
38480;DHT22;62333;51.980;5.934;2023-02-01T16:51:51;9.70;88.60
38480;DHT22;62333;51.980;5.934;2023-02-01T16:54:19;9.70;88.60
38480;DHT22;62333;51.980;5.934;2023-02-01T16:56:45;9.80;88.70
38480;DHT22;62333;51.980;5.934;2023-02-01T16:59:11;9.80;88.60
38480;DHT22;62333;51.980;5.934;2023-02-01T17:01:38;9.80;88.60
38480;DHT22;62333;51.980;5.934;2023-02-01T17:04:04;9.80;88.50
38480;DHT22;62333;51.980;5.934;2023-02-01T17:06:30;9.80;88.50
38480;DHT22;62333;51.980;5.934;2023-02-01T17:08:58;9.80;88.50
38480;DHT22;62333;51.980;5.934;2023-02-01T17:11:25;9.80;88.40
38480;DHT22;62333;51.980;5.934;2023-02-01T17:13:52;9.80;89.00
38480;DHT22;62333;51.980;5.934;2023-02-01T17:18:49;9.80;88.60
38480;DHT22;62333;51.980;5.934;2023-02-01T17:21:15;9.90;88.70
38480;DHT22;62333;51.980;5.934;2023-02-01T17:23:41;9.80;88.60
38480;DHT22;62333;51.980;5.934;2023-02-01T17:26:09;9.90;88.40
38480;DHT22;62333;51.980;5.934;2023-02-01T17:28:35;9.80;88.30
38480;DHT22;62333;51.980;5.934;2023-02-01T17:31:00;9.90;88.40
38480;DHT22;62333;51.980;5.934;2023-02-01T17:33:30;9.90;88.40
38480;DHT22;62333;51.980;5.934;2023-02-01T17:35:56;9.90;88.20
38480;DHT22;62333;51.980;5.934;2023-02-01T17:38:25;9.90;88.20
38480;DHT22;62333;51.980;5.934;2023-02-01T17:40:51;10.00;88.20
38480;DHT22;62333;51.980;5.934;2023-02-01T17:43:22;10.00;87.90
38480;DHT22;62333;51.980;5.934;2023-02-01T17:46:12;10.00;87.90
38480;DHT22;62333;51.980;5.934;2023-02-01T17:48:38;10.00;88.40
38480;DHT22;62333;51.980;5.934;2023-02-01T17:51:05;10.00;87.50
38480;DHT22;62333;51.980;5.934;2023-02-01T17:53:39;10.00;87.40
38480;DHT22;62333;51.980;5.934;2023-02-01T17:56:05;10.00;87.30
38480;DHT22;62333;51.980;5.934;2023-02-01T17:58:30;10.00;87.40
38480;DHT22;62333;51.980;5.934;2023-02-01T18:00:58;10.00;87.40
38480;DHT22;62333;51.980;5.934;2023-02-01T18:03:28;10.00;87.40
38480;DHT22;62333;51.980;5.934;2023-02-01T18:05:56;10.00;87.50
38480;DHT22;62333;51.980;5.934;2023-02-01T18:08:24;10.00;87.30
38480;DHT22;62333;51.980;5.934;2023-02-01T18:10:56;10.10;87.30
38480;DHT22;62333;51.980;5.934;2023-02-01T18:13:28;10.10;87.10
38480;DHT22;62333;51.980;5.934;2023-02-01T18:15:54;10.10;87.10
38480;DHT22;62333;51.980;5.934;2023-02-01T18:18:20;10.10;86.70
38480;DHT22;62333;51.980;5.934;2023-02-01T18:20:47;10.10;86.70
38480;DHT22;62333;51.980;5.934;2023-02-01T18:23:21;10.10;86.70
38480;DHT22;62333;51.980;5.934;2023-02-01T18:25:48;10.10;86.90
38480;DHT22;62333;51.980;5.934;2023-02-01T18:28:14;10.10;87.10
38480;DHT22;62333;51.980;5.934;2023-02-01T18:30:42;10.10;87.50
38480;DHT22;62333;51.980;5.934;2023-02-01T18:33:11;10.20;87.70
38480;DHT22;62333;51.980;5.934;2023-02-01T18:35:37;10.20;87.90
38480;DHT22;62333;51.980;5.934;2023-02-01T18:38:02;10.20;87.90
38480;DHT22;62333;51.980;5.934;2023-02-01T18:40:31;10.20;88.00
38480;DHT22;62333;51.980;5.934;2023-02-01T18:42:58;10.20;88.20
38480;DHT22;62333;51.980;5.934;2023-02-01T18:45:39;10.20;88.30
38480;DHT22;62333;51.980;5.934;2023-02-01T18:48:06;10.10;88.30
38480;DHT22;62333;51.980;5.934;2023-02-01T18:50:35;9.90;88.40
38480;DHT22;62333;51.980;5.934;2023-02-01T18:53:04;9.80;88.70
38480;DHT22;62333;51.980;5.934;2023-02-01T18:55:30;9.70;89.00
38480;DHT22;62333;51.980;5.934;2023-02-01T18:57:59;9.60;89.90
38480;DHT22;62333;51.980;5.934;2023-02-01T19:00:26;9.50;90.30